Gum Spring, Virginia
Current Conditions -  °F | °C
As of 5:55 PM on Thursday 23 Oct 2014 (Local Time) from K7W4 Reporting Station
Clear Clear  
Wind Chill: 62°   Ceiling: Unl
Heat Index: 62°   Visibility: 10mi
Dew Point: 45°   Wind: 3mph
Humidity: 54%   Direction: 330°NNW
Pressure: 29.91"   Gusts: NA
Location:  37.78°N, 77.9°W
Report Text: K7W4 232155Z AUTO 33003KT 10SM CLR 17/07 A2991 RMK AO1 T01650071
Loading
Personal Weather Stations






























Interactive Weather Map
Tropical Storm Tracking
New forecast layout! Learn more

10-Day Weather Forecast

Advertisements
Track Severe Weather on mobile